Airport View

Enter AWOS ICAO identifier for current METAR.

KFNL for example

KPIT 011651Z 13005KT 10SM BKN021 BKN028 19/15 A3007 RMK AO2 SLP187 T01940150

1 Oct 2016 17:06

Phone: 412-472-0145

Other Area AWOS: 42PN - KAGC - KBVI - KBTP

TAF AMD KPIT 011505Z 0115/0218 10004KT P6SM BKN015 BKN040 FM011800 13004KT P6SM BKN035 FM020900 18003KT P6SM BKN025 FM021400 18005KT P6SM BKN040